sensor_id;sensor_type;location;lat;lon;timestamp;temperature;humidity
81524;DHT22;70954;49.500;10.416;2023-07-13T00:01:43;23.50;43.10
81524;DHT22;70954;49.500;10.416;2023-07-13T00:04:09;23.50;43.20
81524;DHT22;70954;49.500;10.416;2023-07-13T00:06:34;23.40;43.20
81524;DHT22;70954;49.500;10.416;2023-07-13T00:09:00;23.40;43.20
81524;DHT22;70954;49.500;10.416;2023-07-13T00:11:26;23.40;43.20
81524;DHT22;70954;49.500;10.416;2023-07-13T00:13:51;23.30;43.30
81524;DHT22;70954;49.500;10.416;2023-07-13T00:16:17;23.30;43.40
81524;DHT22;70954;49.500;10.416;2023-07-13T00:18:42;23.20;43.50
81524;DHT22;70954;49.500;10.416;2023-07-13T00:21:08;23.20;43.60
81524;DHT22;70954;49.500;10.416;2023-07-13T00:23:39;23.10;43.60
81524;DHT22;70954;49.500;10.416;2023-07-13T00:26:07;23.10;43.80
81524;DHT22;70954;49.500;10.416;2023-07-13T00:28:34;23.00;43.80
81524;DHT22;70954;49.500;10.416;2023-07-13T00:31:00;22.90;43.90
81524;DHT22;70954;49.500;10.416;2023-07-13T00:33:26;22.90;44.00
81524;DHT22;70954;49.500;10.416;2023-07-13T00:35:54;22.80;44.20
81524;DHT22;70954;49.500;10.416;2023-07-13T00:38:19;22.70;44.30
81524;DHT22;70954;49.500;10.416;2023-07-13T00:40:45;22.70;44.30
81524;DHT22;70954;49.500;10.416;2023-07-13T00:43:16;22.60;44.60
81524;DHT22;70954;49.500;10.416;2023-07-13T00:48:17;22.50;44.80
81524;DHT22;70954;49.500;10.416;2023-07-13T00:50:44;22.40;45.00
81524;DHT22;70954;49.500;10.416;2023-07-13T00:53:11;22.30;45.00
81524;DHT22;70954;49.500;10.416;2023-07-13T00:55:38;22.30;45.10
81524;DHT22;70954;49.500;10.416;2023-07-13T00:58:04;22.20;45.20
81524;DHT22;70954;49.500;10.416;2023-07-13T01:03:34;22.10;46.20
81524;DHT22;70954;49.500;10.416;2023-07-13T01:06:01;22.00;45.40
81524;DHT22;70954;49.500;10.416;2023-07-13T01:08:26;22.00;45.50
81524;DHT22;70954;49.500;10.416;2023-07-13T01:10:56;21.90;45.60
81524;DHT22;70954;49.500;10.416;2023-07-13T01:13:22;21.90;45.80
81524;DHT22;70954;49.500;10.416;2023-07-13T01:15:49;21.90;45.80
81524;DHT22;70954;49.500;10.416;2023-07-13T01:18:26;21.80;45.80
81524;DHT22;70954;49.500;10.416;2023-07-13T01:21:03;21.80;46.10
81524;DHT22;70954;49.500;10.416;2023-07-13T01:23:30;21.70;46.00
81524;DHT22;70954;49.500;10.416;2023-07-13T01:25:57;21.70;46.20
81524;DHT22;70954;49.500;10.416;2023-07-13T01:28:23;21.60;46.20
81524;DHT22;70954;49.500;10.416;2023-07-13T01:30:49;21.50;46.20
81524;DHT22;70954;49.500;10.416;2023-07-13T01:33:16;21.50;46.30
81524;DHT22;70954;49.500;10.416;2023-07-13T01:35:44;21.50;46.40
81524;DHT22;70954;49.500;10.416;2023-07-13T01:38:12;21.40;46.50
81524;DHT22;70954;49.500;10.416;2023-07-13T01:40:38;21.40;46.60
81524;DHT22;70954;49.500;10.416;2023-07-13T01:43:04;21.30;46.70
81524;DHT22;70954;49.500;10.416;2023-07-13T01:45:29;21.30;46.80
81524;DHT22;70954;49.500;10.416;2023-07-13T01:47:55;21.10;46.90
81524;DHT22;70954;49.500;10.416;2023-07-13T01:50:20;21.10;47.00
81524;DHT22;70954;49.500;10.416;2023-07-13T01:52:46;21.10;47.10
81524;DHT22;70954;49.500;10.416;2023-07-13T01:55:11;21.00;47.10
81524;DHT22;70954;49.500;10.416;2023-07-13T01:57:37;20.90;47.20
81524;DHT22;70954;49.500;10.416;2023-07-13T02:00:04;20.90;47.30
81524;DHT22;70954;49.500;10.416;2023-07-13T02:02:30;20.80;47.30
81524;DHT22;70954;49.500;10.416;2023-07-13T02:04:55;20.80;47.50
81524;DHT22;70954;49.500;10.416;2023-07-13T02:07:21;20.70;47.50
81524;DHT22;70954;49.500;10.416;2023-07-13T02:09:46;20.70;47.50
81524;DHT22;70954;49.500;10.416;2023-07-13T02:12:12;20.60;47.60
81524;DHT22;70954;49.500;10.416;2023-07-13T02:14:37;20.60;47.70
81524;DHT22;70954;49.500;10.416;2023-07-13T02:17:03;20.60;47.80
81524;DHT22;70954;49.500;10.416;2023-07-13T02:19:28;20.50;47.80
81524;DHT22;70954;49.500;10.416;2023-07-13T02:21:54;20.50;47.80
81524;DHT22;70954;49.500;10.416;2023-07-13T02:24:19;20.50;47.80
81524;DHT22;70954;49.500;10.416;2023-07-13T02:26:45;20.50;47.90
81524;DHT22;70954;49.500;10.416;2023-07-13T02:29:10;20.40;48.00
81524;DHT22;70954;49.500;10.416;2023-07-13T02:31:36;20.40;47.90
81524;DHT22;70954;49.500;10.416;2023-07-13T02:34:02;20.30;47.90
81524;DHT22;70954;49.500;10.416;2023-07-13T02:36:28;20.30;47.90
81524;DHT22;70954;49.500;10.416;2023-07-13T02:38:54;20.30;47.90
81524;DHT22;70954;49.500;10.416;2023-07-13T02:41:19;20.30;47.90
81524;DHT22;70954;49.500;10.416;2023-07-13T02:43:45;20.20;47.90
81524;DHT22;70954;49.500;10.416;2023-07-13T02:46:10;20.20;47.90
81524;DHT22;70954;49.500;10.416;2023-07-13T02:48:37;20.10;47.90
81524;DHT22;70954;49.500;10.416;2023-07-13T02:51:03;20.10;47.90
81524;DHT22;70954;49.500;10.416;2023-07-13T02:53:28;20.00;47.90
81524;DHT22;70954;49.500;10.416;2023-07-13T02:55:54;20.00;47.90
81524;DHT22;70954;49.500;10.416;2023-07-13T02:58:20;20.00;47.90
81524;DHT22;70954;49.500;10.416;2023-07-13T03:00:46;20.00;47.90
81524;DHT22;70954;49.500;10.416;2023-07-13T03:03:13;20.00;47.90
81524;DHT22;70954;49.500;10.416;2023-07-13T03:05:41;19.90;47.90
81524;DHT22;70954;49.500;10.416;2023-07-13T03:08:07;19.90;47.90
81524;DHT22;70954;49.500;10.416;2023-07-13T03:10:32;19.80;47.90
81524;DHT22;70954;49.500;10.416;2023-07-13T03:12:57;19.70;48.00
81524;DHT22;70954;49.500;10.416;2023-07-13T03:15:23;19.70;48.00
81524;DHT22;70954;49.500;10.416;2023-07-13T03:17:48;19.70;48.00
81524;DHT22;70954;49.500;10.416;2023-07-13T03:20:14;19.70;48.00
81524;DHT22;70954;49.500;10.416;2023-07-13T03:22:39;19.50;48.00
81524;DHT22;70954;49.500;10.416;2023-07-13T03:25:05;19.50;48.10
81524;DHT22;70954;49.500;10.416;2023-07-13T03:27:31;19.50;48.10
81524;DHT22;70954;49.500;10.416;2023-07-13T03:29:56;19.50;48.20
81524;DHT22;70954;49.500;10.416;2023-07-13T03:32:22;19.40;48.20
81524;DHT22;70954;49.500;10.416;2023-07-13T03:34:47;19.40;48.30
81524;DHT22;70954;49.500;10.416;2023-07-13T03:37:13;19.40;48.30
81524;DHT22;70954;49.500;10.416;2023-07-13T03:39:38;19.40;48.30
81524;DHT22;70954;49.500;10.416;2023-07-13T03:42:04;19.30;48.40
81524;DHT22;70954;49.500;10.416;2023-07-13T03:44:30;19.30;48.40
81524;DHT22;70954;49.500;10.416;2023-07-13T03:46:55;19.30;48.50
81524;DHT22;70954;49.500;10.416;2023-07-13T03:49:21;19.30;48.60
81524;DHT22;70954;49.500;10.416;2023-07-13T03:51:46;19.30;48.60
81524;DHT22;70954;49.500;10.416;2023-07-13T03:54:12;19.30;48.60
81524;DHT22;70954;49.500;10.416;2023-07-13T03:56:37;19.20;48.70
81524;DHT22;70954;49.500;10.416;2023-07-13T03:59:03;19.20;48.70
81524;DHT22;70954;49.500;10.416;2023-07-13T04:01:28;19.20;48.70
81524;DHT22;70954;49.500;10.416;2023-07-13T04:03:54;19.20;48.70
81524;DHT22;70954;49.500;10.416;2023-07-13T04:06:22;19.20;48.70
81524;DHT22;70954;49.500;10.416;2023-07-13T04:08:50;19.20;48.70
81524;DHT22;70954;49.500;10.416;2023-07-13T04:11:17;19.20;48.70
81524;DHT22;70954;49.500;10.416;2023-07-13T04:13:43;19.20;48.70
81524;DHT22;70954;49.500;10.416;2023-07-13T04:16:08;19.20;48.80
81524;DHT22;70954;49.500;10.416;2023-07-13T04:18:34;19.20;48.90
81524;DHT22;70954;49.500;10.416;2023-07-13T04:20:59;19.20;49.00
81524;DHT22;70954;49.500;10.416;2023-07-13T04:23:25;19.20;49.00
81524;DHT22;70954;49.500;10.416;2023-07-13T04:25:52;19.20;49.10
81524;DHT22;70954;49.500;10.416;2023-07-13T04:28:19;19.20;49.00
81524;DHT22;70954;49.500;10.416;2023-07-13T04:30:45;19.20;49.00
81524;DHT22;70954;49.500;10.416;2023-07-13T04:33:11;19.20;49.10
81524;DHT22;70954;49.500;10.416;2023-07-13T04:35:36;19.30;49.20
81524;DHT22;70954;49.500;10.416;2023-07-13T04:38:02;19.30;49.20
81524;DHT22;70954;49.500;10.416;2023-07-13T04:40:28;19.30;49.20
81524;DHT22;70954;49.500;10.416;2023-07-13T04:42:54;19.30;49.20
81524;DHT22;70954;49.500;10.416;2023-07-13T04:45:19;19.40;49.20
81524;DHT22;70954;49.500;10.416;2023-07-13T04:47:45;19.40;49.30
81524;DHT22;70954;49.500;10.416;2023-07-13T04:50:13;19.50;49.20
81524;DHT22;70954;49.500;10.416;2023-07-13T04:52:38;19.50;49.20
81524;DHT22;70954;49.500;10.416;2023-07-13T04:55:04;19.50;49.20
81524;DHT22;70954;49.500;10.416;2023-07-13T04:57:30;19.60;49.20
81524;DHT22;70954;49.500;10.416;2023-07-13T04:59:55;19.70;49.20
81524;DHT22;70954;49.500;10.416;2023-07-13T05:02:21;19.70;49.20
81524;DHT22;70954;49.500;10.416;2023-07-13T05:04:48;19.70;49.20
81524;DHT22;70954;49.500;10.416;2023-07-13T05:07:14;19.70;49.10
81524;DHT22;70954;49.500;10.416;2023-07-13T05:09:39;19.80;49.10
81524;DHT22;70954;49.500;10.416;2023-07-13T05:12:05;19.90;49.00
81524;DHT22;70954;49.500;10.416;2023-07-13T05:14:31;19.90;48.90
81524;DHT22;70954;49.500;10.416;2023-07-13T05:16:56;20.00;48.90
81524;DHT22;70954;49.500;10.416;2023-07-13T05:19:22;20.00;48.80
81524;DHT22;70954;49.500;10.416;2023-07-13T05:21:47;20.00;48.70
81524;DHT22;70954;49.500;10.416;2023-07-13T05:24:12;20.10;48.60
81524;DHT22;70954;49.500;10.416;2023-07-13T05:26:38;20.20;48.50
81524;DHT22;70954;49.500;10.416;2023-07-13T05:29:03;20.20;48.40
81524;DHT22;70954;49.500;10.416;2023-07-13T05:31:29;20.30;48.20
81524;DHT22;70954;49.500;10.416;2023-07-13T05:33:54;20.30;48.00
81524;DHT22;70954;49.500;10.416;2023-07-13T05:36:20;20.30;47.90
81524;DHT22;70954;49.500;10.416;2023-07-13T05:38:45;20.40;47.80
81524;DHT22;70954;49.500;10.416;2023-07-13T05:41:11;20.50;47.70
81524;DHT22;70954;49.500;10.416;2023-07-13T05:43:36;20.50;47.60
81524;DHT22;70954;49.500;10.416;2023-07-13T05:46:01;20.50;47.40
81524;DHT22;70954;49.500;10.416;2023-07-13T05:48:27;20.60;47.20
81524;DHT22;70954;49.500;10.416;2023-07-13T05:50:52;20.60;47.20
81524;DHT22;70954;49.500;10.416;2023-07-13T05:53:18;20.70;47.10
81524;DHT22;70954;49.500;10.416;2023-07-13T05:55:45;20.80;47.00
81524;DHT22;70954;49.500;10.416;2023-07-13T05:58:11;20.80;46.80
81524;DHT22;70954;49.500;10.416;2023-07-13T06:00:37;20.90;46.50
81524;DHT22;70954;49.500;10.416;2023-07-13T06:03:02;20.90;46.50
81524;DHT22;70954;49.500;10.416;2023-07-13T06:05:28;21.00;46.40
81524;DHT22;70954;49.500;10.416;2023-07-13T06:07:53;21.10;46.00
81524;DHT22;70954;49.500;10.416;2023-07-13T06:10:19;21.10;45.50
81524;DHT22;70954;49.500;10.416;2023-07-13T06:12:44;21.10;45.50
81524;DHT22;70954;49.500;10.416;2023-07-13T06:15:10;21.10;45.40
81524;DHT22;70954;49.500;10.416;2023-07-13T06:17:35;21.20;45.40
81524;DHT22;70954;49.500;10.416;2023-07-13T06:20:01;21.20;45.00
81524;DHT22;70954;49.500;10.416;2023-07-13T06:22:26;21.20;45.00
81524;DHT22;70954;49.500;10.416;2023-07-13T06:24:52;21.30;44.80
81524;DHT22;70954;49.500;10.416;2023-07-13T06:27:17;21.30;44.70
81524;DHT22;70954;49.500;10.416;2023-07-13T06:29:43;21.30;44.60
81524;DHT22;70954;49.500;10.416;2023-07-13T06:32:08;21.30;44.60
81524;DHT22;70954;49.500;10.416;2023-07-13T06:34:34;21.30;44.50
81524;DHT22;70954;49.500;10.416;2023-07-13T06:36:59;21.30;44.20
81524;DHT22;70954;49.500;10.416;2023-07-13T06:39:24;21.40;44.20
81524;DHT22;70954;49.500;10.416;2023-07-13T06:41:50;21.40;44.30
81524;DHT22;70954;49.500;10.416;2023-07-13T06:44:15;21.40;44.40
81524;DHT22;70954;49.500;10.416;2023-07-13T06:46:41;21.40;44.30
81524;DHT22;70954;49.500;10.416;2023-07-13T06:49:08;21.50;44.00
81524;DHT22;70954;49.500;10.416;2023-07-13T06:51:46;21.50;44.00
81524;DHT22;70954;49.500;10.416;2023-07-13T06:54:11;21.50;43.90
81524;DHT22;70954;49.500;10.416;2023-07-13T06:56:37;21.50;43.80
81524;DHT22;70954;49.500;10.416;2023-07-13T06:59:02;21.50;43.90
81524;DHT22;70954;49.500;10.416;2023-07-13T07:01:28;21.60;43.90
81524;DHT22;70954;49.500;10.416;2023-07-13T07:03:53;21.70;43.90
81524;DHT22;70954;49.500;10.416;2023-07-13T07:06:21;21.70;43.70
81524;DHT22;70954;49.500;10.416;2023-07-13T07:08:46;21.70;43.70
81524;DHT22;70954;49.500;10.416;2023-07-13T07:11:14;21.90;43.70
81524;DHT22;70954;49.500;10.416;2023-07-13T07:13:40;21.90;43.60
81524;DHT22;70954;49.500;10.416;2023-07-13T07:16:06;21.90;43.60
81524;DHT22;70954;49.500;10.416;2023-07-13T07:18:31;22.00;43.60
81524;DHT22;70954;49.500;10.416;2023-07-13T07:20:56;22.10;43.40
81524;DHT22;70954;49.500;10.416;2023-07-13T07:23:22;22.10;43.30
81524;DHT22;70954;49.500;10.416;2023-07-13T07:25:47;22.20;43.10
81524;DHT22;70954;49.500;10.416;2023-07-13T07:28:15;22.30;43.00
81524;DHT22;70954;49.500;10.416;2023-07-13T07:30:47;22.30;42.80
81524;DHT22;70954;49.500;10.416;2023-07-13T07:33:13;22.40;42.20
81524;DHT22;70954;49.500;10.416;2023-07-13T07:35:38;22.50;42.40
81524;DHT22;70954;49.500;10.416;2023-07-13T07:38:04;22.50;42.30
81524;DHT22;70954;49.500;10.416;2023-07-13T07:40:30;22.50;42.20
81524;DHT22;70954;49.500;10.416;2023-07-13T07:42:55;22.50;42.10
81524;DHT22;70954;49.500;10.416;2023-07-13T07:45:21;22.50;42.10
81524;DHT22;70954;49.500;10.416;2023-07-13T07:47:47;22.50;42.20
81524;DHT22;70954;49.500;10.416;2023-07-13T07:50:13;22.60;42.30
81524;DHT22;70954;49.500;10.416;2023-07-13T07:52:39;22.60;42.30
81524;DHT22;70954;49.500;10.416;2023-07-13T07:55:06;22.60;42.10
81524;DHT22;70954;49.500;10.416;2023-07-13T07:57:32;22.70;41.90
81524;DHT22;70954;49.500;10.416;2023-07-13T07:59:57;22.70;42.00
81524;DHT22;70954;49.500;10.416;2023-07-13T08:02:24;22.80;41.80
81524;DHT22;70954;49.500;10.416;2023-07-13T08:04:50;22.90;41.80
81524;DHT22;70954;49.500;10.416;2023-07-13T08:07:16;22.90;41.60
81524;DHT22;70954;49.500;10.416;2023-07-13T08:09:41;23.00;41.60
81524;DHT22;70954;49.500;10.416;2023-07-13T08:12:07;23.10;41.50
81524;DHT22;70954;49.500;10.416;2023-07-13T08:14:33;23.20;41.20
81524;DHT22;70954;49.500;10.416;2023-07-13T08:16:58;23.30;40.70
81524;DHT22;70954;49.500;10.416;2023-07-13T08:19:24;23.40;40.30
81524;DHT22;70954;49.500;10.416;2023-07-13T08:21:49;23.50;40.20
81524;DHT22;70954;49.500;10.416;2023-07-13T08:24:15;23.50;40.10
81524;DHT22;70954;49.500;10.416;2023-07-13T08:26:40;23.60;40.10
81524;DHT22;70954;49.500;10.416;2023-07-13T08:29:06;23.60;39.80
81524;DHT22;70954;49.500;10.416;2023-07-13T08:31:31;23.80;39.60
81524;DHT22;70954;49.500;10.416;2023-07-13T08:33:57;23.90;39.40
81524;DHT22;70954;49.500;10.416;2023-07-13T08:36:22;23.90;39.20
81524;DHT22;70954;49.500;10.416;2023-07-13T08:38:48;24.00;38.50
81524;DHT22;70954;49.500;10.416;2023-07-13T08:41:17;24.00;38.10
81524;DHT22;70954;49.500;10.416;2023-07-13T08:43:46;24.10;38.30
81524;DHT22;70954;49.500;10.416;2023-07-13T08:46:21;24.20;38.20
81524;DHT22;70954;49.500;10.416;2023-07-13T08:48:53;24.20;38.00
81524;DHT22;70954;49.500;10.416;2023-07-13T08:51:30;24.30;37.80
81524;DHT22;70954;49.500;10.416;2023-07-13T08:54:00;24.40;37.40
81524;DHT22;70954;49.500;10.416;2023-07-13T08:56:28;24.40;37.00
81524;DHT22;70954;49.500;10.416;2023-07-13T08:59:01;24.50;37.10
81524;DHT22;70954;49.500;10.416;2023-07-13T09:04:18;24.60;37.00
81524;DHT22;70954;49.500;10.416;2023-07-13T09:12:33;24.80;34.40
81524;DHT22;70954;49.500;10.416;2023-07-13T09:15:02;24.80;35.40
81524;DHT22;70954;49.500;10.416;2023-07-13T09:17:35;24.90;35.90
81524;DHT22;70954;49.500;10.416;2023-07-13T09:22:48;25.00;36.10
81524;DHT22;70954;49.500;10.416;2023-07-13T09:25:34;25.00;35.90
81524;DHT22;70954;49.500;10.416;2023-07-13T09:33:35;25.10;35.30
81524;DHT22;70954;49.500;10.416;2023-07-13T09:36:05;25.20;35.30
81524;DHT22;70954;49.500;10.416;2023-07-13T09:38:36;25.20;34.90
81524;DHT22;70954;49.500;10.416;2023-07-13T09:41:20;25.20;34.90
81524;DHT22;70954;49.500;10.416;2023-07-13T09:44:13;25.30;34.70
81524;DHT22;70954;49.500;10.416;2023-07-13T09:46:43;25.30;34.20
81524;DHT22;70954;49.500;10.416;2023-07-13T09:49:10;25.40;35.00
81524;DHT22;70954;49.500;10.416;2023-07-13T09:51:37;25.40;34.80
81524;DHT22;70954;49.500;10.416;2023-07-13T09:54:02;25.40;34.90
81524;DHT22;70954;49.500;10.416;2023-07-13T09:56:29;25.50;34.70
81524;DHT22;70954;49.500;10.416;2023-07-13T09:58:56;25.50;34.40
81524;DHT22;70954;49.500;10.416;2023-07-13T10:01:38;25.50;34.60
81524;DHT22;70954;49.500;10.416;2023-07-13T10:04:13;25.50;33.70
81524;DHT22;70954;49.500;10.416;2023-07-13T10:06:39;25.60;33.30
81524;DHT22;70954;49.500;10.416;2023-07-13T10:09:07;25.60;34.00
81524;DHT22;70954;49.500;10.416;2023-07-13T10:11:36;25.50;33.90
81524;DHT22;70954;49.500;10.416;2023-07-13T10:14:09;25.50;34.20
81524;DHT22;70954;49.500;10.416;2023-07-13T10:16:35;25.50;34.10
81524;DHT22;70954;49.500;10.416;2023-07-13T10:19:15;25.50;33.90
81524;DHT22;70954;49.500;10.416;2023-07-13T10:22:03;25.50;33.30
81524;DHT22;70954;49.500;10.416;2023-07-13T10:24:37;25.50;33.50
81524;DHT22;70954;49.500;10.416;2023-07-13T10:27:43;25.50;34.00
81524;DHT22;70954;49.500;10.416;2023-07-13T10:30:21;25.50;33.40
81524;DHT22;70954;49.500;10.416;2023-07-13T10:32:48;25.50;34.00
81524;DHT22;70954;49.500;10.416;2023-07-13T10:35:15;25.60;34.00
81524;DHT22;70954;49.500;10.416;2023-07-13T10:40:41;25.60;34.60
81524;DHT22;70954;49.500;10.416;2023-07-13T10:43:14;25.80;34.10
81524;DHT22;70954;49.500;10.416;2023-07-13T10:45:45;25.80;33.70
81524;DHT22;70954;49.500;10.416;2023-07-13T10:48:13;26.00;33.50
81524;DHT22;70954;49.500;10.416;2023-07-13T10:50:40;26.00;33.30
81524;DHT22;70954;49.500;10.416;2023-07-13T10:53:21;26.00;33.30
81524;DHT22;70954;49.500;10.416;2023-07-13T10:58:21;26.10;33.00
81524;DHT22;70954;49.500;10.416;2023-07-13T11:00:51;26.10;32.90
81524;DHT22;70954;49.500;10.416;2023-07-13T11:03:20;26.20;33.20
81524;DHT22;70954;49.500;10.416;2023-07-13T11:05:52;26.20;33.30
81524;DHT22;70954;49.500;10.416;2023-07-13T11:08:33;26.20;33.00
81524;DHT22;70954;49.500;10.416;2023-07-13T11:10:59;26.30;33.00
81524;DHT22;70954;49.500;10.416;2023-07-13T11:16:13;26.40;32.50
81524;DHT22;70954;49.500;10.416;2023-07-13T11:18:38;26.40;32.50
81524;DHT22;70954;49.500;10.416;2023-07-13T11:21:15;26.40;32.90
81524;DHT22;70954;49.500;10.416;2023-07-13T11:23:51;26.40;32.20
81524;DHT22;70954;49.500;10.416;2023-07-13T11:29:27;26.40;31.60
81524;DHT22;70954;49.500;10.416;2023-07-13T11:31:59;26.50;31.90
81524;DHT22;70954;49.500;10.416;2023-07-13T11:34:37;26.50;32.50
81524;DHT22;70954;49.500;10.416;2023-07-13T11:37:03;26.60;32.40
81524;DHT22;70954;49.500;10.416;2023-07-13T11:39:37;26.70;32.80
81524;DHT22;70954;49.500;10.416;2023-07-13T11:42:05;26.70;32.40
81524;DHT22;70954;49.500;10.416;2023-07-13T11:44:33;26.80;32.30
81524;DHT22;70954;49.500;10.416;2023-07-13T11:47:07;26.80;32.30
81524;DHT22;70954;49.500;10.416;2023-07-13T11:49:45;26.80;32.20
81524;DHT22;70954;49.500;10.416;2023-07-13T11:52:16;26.90;32.20
81524;DHT22;70954;49.500;10.416;2023-07-13T11:54:49;26.90;31.90
81524;DHT22;70954;49.500;10.416;2023-07-13T11:57:30;26.90;31.40
81524;DHT22;70954;49.500;10.416;2023-07-13T11:59:56;26.90;31.10
81524;DHT22;70954;49.500;10.416;2023-07-13T12:02:33;26.90;31.60
81524;DHT22;70954;49.500;10.416;2023-07-13T12:05:00;26.90;31.20
81524;DHT22;70954;49.500;10.416;2023-07-13T12:07:30;26.90;31.60
81524;DHT22;70954;49.500;10.416;2023-07-13T12:10:02;26.90;31.60
81524;DHT22;70954;49.500;10.416;2023-07-13T12:12:29;26.80;31.10
81524;DHT22;70954;49.500;10.416;2023-07-13T12:14:55;26.80;31.50
81524;DHT22;70954;49.500;10.416;2023-07-13T12:17:23;26.80;31.50
81524;DHT22;70954;49.500;10.416;2023-07-13T12:19:50;26.80;31.20
81524;DHT22;70954;49.500;10.416;2023-07-13T12:22:18;26.80;31.20
81524;DHT22;70954;49.500;10.416;2023-07-13T12:24:44;26.70;31.00
81524;DHT22;70954;49.500;10.416;2023-07-13T12:27:22;26.80;31.20
81524;DHT22;70954;49.500;10.416;2023-07-13T12:30:02;26.80;30.80
81524;DHT22;70954;49.500;10.416;2023-07-13T12:32:28;26.70;30.70
81524;DHT22;70954;49.500;10.416;2023-07-13T12:35:01;26.70;31.20
81524;DHT22;70954;49.500;10.416;2023-07-13T12:37:34;26.80;31.30
81524;DHT22;70954;49.500;10.416;2023-07-13T12:40:00;26.80;31.50
81524;DHT22;70954;49.500;10.416;2023-07-13T12:42:28;26.90;31.50
81524;DHT22;70954;49.500;10.416;2023-07-13T12:45:05;26.90;31.10
81524;DHT22;70954;49.500;10.416;2023-07-13T12:47:41;27.00;31.20
81524;DHT22;70954;49.500;10.416;2023-07-13T12:50:17;27.00;30.70
81524;DHT22;70954;49.500;10.416;2023-07-13T12:52:44;27.00;30.30
81524;DHT22;70954;49.500;10.416;2023-07-13T12:55:16;27.00;31.00
81524;DHT22;70954;49.500;10.416;2023-07-13T12:57:51;27.00;30.50
81524;DHT22;70954;49.500;10.416;2023-07-13T13:00:37;27.00;30.60
81524;DHT22;70954;49.500;10.416;2023-07-13T13:03:24;27.00;29.70
81524;DHT22;70954;49.500;10.416;2023-07-13T13:06:07;27.00;30.50
81524;DHT22;70954;49.500;10.416;2023-07-13T13:08:45;27.00;30.70
81524;DHT22;70954;49.500;10.416;2023-07-13T13:11:10;27.00;30.70
81524;DHT22;70954;49.500;10.416;2023-07-13T13:13:36;27.10;31.10
81524;DHT22;70954;49.500;10.416;2023-07-13T13:18:46;27.10;31.10
81524;DHT22;70954;49.500;10.416;2023-07-13T13:21:12;27.20;31.10
81524;DHT22;70954;49.500;10.416;2023-07-13T13:23:37;27.20;30.60
81524;DHT22;70954;49.500;10.416;2023-07-13T13:26:08;27.30;30.50
81524;DHT22;70954;49.500;10.416;2023-07-13T13:28:34;27.30;30.40
81524;DHT22;70954;49.500;10.416;2023-07-13T13:30:59;27.30;30.30
81524;DHT22;70954;49.500;10.416;2023-07-13T13:33:25;27.30;30.20
81524;DHT22;70954;49.500;10.416;2023-07-13T13:35:50;27.30;30.10
81524;DHT22;70954;49.500;10.416;2023-07-13T13:38:27;27.30;29.90
81524;DHT22;70954;49.500;10.416;2023-07-13T13:40:53;27.30;29.90
81524;DHT22;70954;49.500;10.416;2023-07-13T13:43:22;27.20;30.00
81524;DHT22;70954;49.500;10.416;2023-07-13T13:45:48;27.20;29.90
81524;DHT22;70954;49.500;10.416;2023-07-13T13:48:29;27.20;30.10
81524;DHT22;70954;49.500;10.416;2023-07-13T13:50:56;27.20;29.50
81524;DHT22;70954;49.500;10.416;2023-07-13T13:53:22;27.20;29.80
81524;DHT22;70954;49.500;10.416;2023-07-13T13:55:47;27.20;29.70
81524;DHT22;70954;49.500;10.416;2023-07-13T13:58:13;27.20;30.00
81524;DHT22;70954;49.500;10.416;2023-07-13T14:00:38;27.20;29.80
81524;DHT22;70954;49.500;10.416;2023-07-13T14:03:04;27.20;29.80
81524;DHT22;70954;49.500;10.416;2023-07-13T14:05:30;27.20;29.70
81524;DHT22;70954;49.500;10.416;2023-07-13T14:07:56;27.20;29.70
81524;DHT22;70954;49.500;10.416;2023-07-13T14:10:21;27.20;29.40
81524;DHT22;70954;49.500;10.416;2023-07-13T14:12:48;27.30;29.70
81524;DHT22;70954;49.500;10.416;2023-07-13T14:15:27;27.30;29.80
81524;DHT22;70954;49.500;10.416;2023-07-13T14:17:54;27.40;29.10
81524;DHT22;70954;49.500;10.416;2023-07-13T14:20:21;27.40;29.60
81524;DHT22;70954;49.500;10.416;2023-07-13T14:22:48;27.40;29.60
81524;DHT22;70954;49.500;10.416;2023-07-13T14:25:15;27.40;29.60
81524;DHT22;70954;49.500;10.416;2023-07-13T14:27:43;27.50;29.60
81524;DHT22;70954;49.500;10.416;2023-07-13T14:30:16;27.50;29.80
81524;DHT22;70954;49.500;10.416;2023-07-13T14:32:42;27.50;29.70
81524;DHT22;70954;49.500;10.416;2023-07-13T14:35:11;27.50;29.70
81524;DHT22;70954;49.500;10.416;2023-07-13T14:37:37;27.50;29.80
81524;DHT22;70954;49.500;10.416;2023-07-13T14:40:11;27.50;29.90
81524;DHT22;70954;49.500;10.416;2023-07-13T14:42:37;27.50;29.80
81524;DHT22;70954;49.500;10.416;2023-07-13T14:45:03;27.50;29.80
81524;DHT22;70954;49.500;10.416;2023-07-13T14:47:28;27.50;29.70
81524;DHT22;70954;49.500;10.416;2023-07-13T14:49:54;27.50;29.70
81524;DHT22;70954;49.500;10.416;2023-07-13T14:52:21;27.50;29.70
81524;DHT22;70954;49.500;10.416;2023-07-13T14:54:48;27.50;29.80
81524;DHT22;70954;49.500;10.416;2023-07-13T14:57:18;27.50;29.60
81524;DHT22;70954;49.500;10.416;2023-07-13T14:59:44;27.50;29.70
81524;DHT22;70954;49.500;10.416;2023-07-13T15:02:33;27.50;29.50
81524;DHT22;70954;49.500;10.416;2023-07-13T15:04:59;27.50;29.20
81524;DHT22;70954;49.500;10.416;2023-07-13T15:07:24;27.50;29.70
81524;DHT22;70954;49.500;10.416;2023-07-13T15:09:50;27.40;29.60
81524;DHT22;70954;49.500;10.416;2023-07-13T15:12:17;27.40;29.50
81524;DHT22;70954;49.500;10.416;2023-07-13T15:14:42;27.40;29.60
81524;DHT22;70954;49.500;10.416;2023-07-13T15:17:31;27.40;29.60
81524;DHT22;70954;49.500;10.416;2023-07-13T15:19:58;27.30;29.70
81524;DHT22;70954;49.500;10.416;2023-07-13T15:22:24;27.40;30.20
81524;DHT22;70954;49.500;10.416;2023-07-13T15:24:49;27.40;30.00
81524;DHT22;70954;49.500;10.416;2023-07-13T15:27:14;27.40;30.00
81524;DHT22;70954;49.500;10.416;2023-07-13T15:29:40;27.40;29.90
81524;DHT22;70954;49.500;10.416;2023-07-13T15:32:14;27.40;29.70
81524;DHT22;70954;49.500;10.416;2023-07-13T15:34:39;27.50;29.70
81524;DHT22;70954;49.500;10.416;2023-07-13T15:37:15;27.40;29.70
81524;DHT22;70954;49.500;10.416;2023-07-13T15:39:40;27.40;29.40
81524;DHT22;70954;49.500;10.416;2023-07-13T15:42:13;27.40;29.70
81524;DHT22;70954;49.500;10.416;2023-07-13T15:44:38;27.40;29.60
81524;DHT22;70954;49.500;10.416;2023-07-13T15:47:04;27.40;29.70
81524;DHT22;70954;49.500;10.416;2023-07-13T15:49:29;27.40;29.70
81524;DHT22;70954;49.500;10.416;2023-07-13T15:51:55;27.40;29.50
81524;DHT22;70954;49.500;10.416;2023-07-13T15:54:20;27.40;29.70
81524;DHT22;70954;49.500;10.416;2023-07-13T15:56:52;27.40;29.70